Time;durP1;ratioP1;P1;durP2;ratioP2;P2;SDS_P1;SDS_P2;PMS_P1;PMS_P2;Temp;Humidity;BMP_temperature;BMP_pressure;BME280_temperature;BME280_humidity;BME280_pressure;Samples;Min_cycle;Max_cycle;Signal;HPM_P1;HPM_P2
2023/10/21 00:02:00;;;;;;;;;;;;;;;21.35;28.74;97433.44;4944058;29;1205;-78
2023/10/21 00:04:25;;;;;;;;;;;;;;;21.24;28.87;97436.59;4960535;28;1005;-78
2023/10/21 00:06:51;;;;;;;;;;;;;;;20.66;29.79;97434.88;5000076;28;1969;-78
2023/10/21 00:09:17;;;;;;;;;;;;;;;20.53;29.83;97445.41;4983461;28;1234;-78
2023/10/21 00:11:43;;;;;;;;;;;;;;;20.53;30.15;97442.56;4999874;28;1141;-78
2023/10/21 00:14:08;;;;;;;;;;;;;;;20.59;29.79;97437.16;5000384;28;894;-79
2023/10/21 00:16:34;;;;;;;;;;;;;;;20.34;30.14;97437.88;4983563;28;1360;-78
2023/10/21 00:19:00;;;;;;;;;;;;;;;20.80;29.54;97434.41;4999297;28;1153;-78
2023/10/21 00:21:25;;;;;;;;;;;;;;;20.75;29.67;97423.69;4999702;28;1132;-77
2023/10/21 00:23:51;;;;;;;;;;;;;;;20.64;29.57;97428.88;5000658;28;814;-78
2023/10/21 00:26:16;;;;;;;;;;;;;;;20.53;29.89;97432.06;4999302;28;1894;-78
2023/10/21 00:28:48;;;;;;;;;;;;;;;20.76;29.51;97430.91;4999941;28;1008;-78
2023/10/21 00:31:14;;;;;;;;;;;;;;;20.62;29.75;97420.06;4999273;28;1105;-79
2023/10/21 00:33:40;;;;;;;;;;;;;;;20.59;29.72;97425.84;4982963;28;1420;-78
2023/10/21 00:36:05;;;;;;;;;;;;;;;20.60;29.78;97433.84;4999713;28;839;-79
2023/10/21 00:38:31;;;;;;;;;;;;;;;21.08;29.27;97431.88;4982656;28;1135;-78
2023/10/21 00:40:56;;;;;;;;;;;;;;;21.37;28.62;97416.81;4999447;28;1071;-78
2023/10/21 00:43:32;;;;;;;;;;;;;;;21.35;28.62;97422.94;4998374;28;867;-78
2023/10/21 00:45:58;;;;;;;;;;;;;;;21.09;29.27;97425.00;5001848;28;1907;-78
2023/10/21 00:48:24;;;;;;;;;;;;;;;20.80;29.54;97425.94;5018667;28;1102;-78
2023/10/21 00:50:50;;;;;;;;;;;;;;;21.01;29.00;97427.28;5002096;28;900;-79
2023/10/21 00:53:16;;;;;;;;;;;;;;;20.74;29.34;97419.28;5002070;28;1160;-79
2023/10/21 00:55:42;;;;;;;;;;;;;;;20.83;29.49;97437.56;5002415;28;1115;-78
2023/10/21 00:58:08;;;;;;;;;;;;;;;20.70;29.81;97438.38;5002160;28;1146;-79
2023/10/21 01:00:33;;;;;;;;;;;;;;;20.44;30.26;97433.94;4981293;28;1318;-78
2023/10/21 01:02:59;;;;;;;;;;;;;;;20.47;29.79;97441.56;4997571;28;990;-78
2023/10/21 01:05:24;;;;;;;;;;;;;;;20.45;30.01;97432.69;5000610;28;1161;-79
2023/10/21 01:07:50;;;;;;;;;;;;;;;20.81;29.51;97427.50;5000746;28;1926;-78
2023/10/21 01:10:15;;;;;;;;;;;;;;;20.71;29.48;97434.31;5000576;28;1048;-78
2023/10/21 01:12:41;;;;;;;;;;;;;;;20.67;29.44;97422.31;5000613;28;1111;-79
2023/10/21 01:15:07;;;;;;;;;;;;;;;20.68;29.34;97426.75;4980599;28;1056;-78
2023/10/21 01:17:32;;;;;;;;;;;;;;;20.73;29.51;97431.03;4980869;28;1412;-79
2023/10/21 01:19:59;;;;;;;;;;;;;;;20.63;29.49;97427.31;4981090;28;1139;-78
2023/10/21 01:22:25;;;;;;;;;;;;;;;20.66;29.34;97426.38;4980954;28;1236;-79
2023/10/21 01:24:51;;;;;;;;;;;;;;;20.71;29.25;97423.00;4980739;28;1123;-79
2023/10/21 01:27:17;;;;;;;;;;;;;;;20.79;29.31;97434.88;4981021;28;1980;-78
2023/10/21 01:29:42;;;;;;;;;;;;;;;21.19;29.03;97429.50;4964527;28;906;-78
2023/10/21 01:32:07;;;;;;;;;;;;;;;21.24;28.93;97425.28;4958069;29;1108;-78
2023/10/21 01:34:33;;;;;;;;;;;;;;;21.21;29.02;97427.00;4941990;29;1065;-79
2023/10/21 01:37:00;;;;;;;;;;;;;;;21.01;29.23;97427.28;4913556;29;1386;-78
2023/10/21 01:39:26;;;;;;;;;;;;;;;20.66;29.47;97426.38;4900765;29;935;-79
2023/10/21 01:41:51;;;;;;;;;;;;;;;20.69;29.28;97425.50;4900857;29;864;-79
2023/10/21 01:44:17;;;;;;;;;;;;;;;20.70;29.55;97415.75;4887080;29;1204;-78
2023/10/21 01:46:42;;;;;;;;;;;;;;;20.57;29.62;97428.31;4914716;29;1895;-79
2023/10/21 01:49:08;;;;;;;;;;;;;;;20.41;29.86;97429.16;4872417;29;1153;-78
2023/10/21 01:51:33;;;;;;;;;;;;;;;20.31;30.11;97428.25;4888210;29;1201;-79
2023/10/21 01:53:59;;;;;;;;;;;;;;;20.44;30.07;97426.25;4919453;29;913;-78
2023/10/21 01:56:24;;;;;;;;;;;;;;;20.49;30.17;97422.09;4902942;29;1221;-79
2023/10/21 01:58:50;;;;;;;;;;;;;;;20.30;30.04;97444.41;4919542;29;1077;-78
2023/10/21 02:01:15;;;;;;;;;;;;;;;20.35;30.09;97433.81;4903887;29;1134;-78
2023/10/21 02:03:41;;;;;;;;;;;;;;;20.40;30.17;97436.06;4917628;29;1326;-78
2023/10/21 02:06:07;;;;;;;;;;;;;;;20.58;29.85;97442.00;4938445;29;1949;-79
2023/10/21 02:08:33;;;;;;;;;;;;;;;20.62;29.52;97439.84;4950760;28;986;-78
2023/10/21 02:10:58;;;;;;;;;;;;;;;20.48;29.72;97434.66;4986757;28;1263;-78
2023/10/21 02:13:24;;;;;;;;;;;;;;;20.66;29.60;97437.69;4998615;28;880;-79
2023/10/21 02:15:52;;;;;;;;;;;;;;;20.28;30.10;97434.81;4981262;28;1084;-79
2023/10/21 02:18:18;;;;;;;;;;;;;;;20.59;29.87;97434.31;4998274;28;1274;-79
2023/10/21 02:20:43;;;;;;;;;;;;;;;20.74;29.50;97444.72;4981019;28;1475;-78
2023/10/21 02:23:09;;;;;;;;;;;;;;;20.72;29.56;97435.09;4977652;28;1227;-79
2023/10/21 02:25:34;;;;;;;;;;;;;;;20.38;30.08;97438.56;4959343;28;1922;-78
2023/10/21 02:28:01;;;;;;;;;;;;;;;20.81;29.39;97446.50;4944760;28;1280;-78
2023/10/21 02:30:26;;;;;;;;;;;;;;;21.12;29.30;97452.38;4960534;28;930;-77
2023/10/21 02:32:52;;;;;;;;;;;;;;;21.22;29.06;97445.56;4976528;28;1206;-78
2023/10/21 02:35:17;;;;;;;;;;;;;;;21.14;28.87;97449.06;4965871;28;1652;-79
2023/10/21 02:37:43;;;;;;;;;;;;;;;20.96;29.22;97450.47;4925764;29;1103;-79
2023/10/21 02:40:09;;;;;;;;;;;;;;;21.07;28.87;97450.91;4941305;29;1188;-79
2023/10/21 02:42:34;;;;;;;;;;;;;;;20.89;29.09;97461.22;4950739;28;1235;-78
2023/10/21 02:45:00;;;;;;;;;;;;;;;20.88;29.05;97465.28;4945540;28;1472;-79
2023/10/21 02:47:25;;;;;;;;;;;;;;;20.55;29.57;97465.50;4965024;28;1906;-79
2023/10/21 02:49:51;;;;;;;;;;;;;;;20.58;29.93;97475.91;4962215;28;1609;-79
2023/10/21 02:52:16;;;;;;;;;;;;;;;20.41;30.32;97468.72;4971458;28;1207;-79
2023/10/21 02:54:42;;;;;;;;;;;;;;;20.69;29.78;97476.38;4963152;28;1246;-78
2023/10/21 02:57:07;;;;;;;;;;;;;;;20.68;29.46;97468.34;5007105;28;1496;-77
2023/10/21 02:59:36;;;;;;;;;;;;;;;20.54;29.82;97470.38;5014461;28;1458;-78
2023/10/21 03:02:01;;;;;;;;;;;;;;;20.68;29.52;97474.81;5023871;28;1584;-78
2023/10/21 03:04:27;;;;;;;;;;;;;;;20.45;30.27;97466.59;4996521;28;1573;-78
2023/10/21 03:06:53;;;;;;;;;;;;;;;20.29;30.18;97471.09;5009828;28;1906;-78
2023/10/21 03:09:18;;;;;;;;;;;;;;;20.55;29.78;97476.81;5026144;28;1710;-78
2023/10/21 03:11:44;;;;;;;;;;;;;;;20.79;29.67;97478.09;5035101;28;944;-79
2023/10/21 03:14:09;;;;;;;;;;;;;;;20.77;29.28;97477.72;5034789;28;982;-79
2023/10/21 03:16:35;;;;;;;;;;;;;;;20.54;29.58;97476.03;4999537;28;1339;-79
2023/10/21 03:19:01;;;;;;;;;;;;;;;20.61;29.73;97477.84;4999998;28;1385;-79
2023/10/21 03:21:26;;;;;;;;;;;;;;;20.60;29.59;97479.09;5015883;28;742;-79
2023/10/21 03:23:52;;;;;;;;;;;;;;;20.55;29.47;97476.81;5016804;28;783;-79
2023/10/21 03:26:17;;;;;;;;;;;;;;;20.71;29.53;97478.75;4999733;28;1899;-79
2023/10/21 03:28:43;;;;;;;;;;;;;;;21.16;29.08;97474.88;5017136;28;872;-80
2023/10/21 03:31:09;;;;;;;;;;;;;;;21.28;28.90;97474.84;5016002;28;830;-79
2023/10/21 03:33:35;;;;;;;;;;;;;;;21.38;28.62;97469.31;5014991;28;770;-79
2023/10/21 03:36:02;;;;;;;;;;;;;;;20.86;29.36;97479.09;4999554;28;1152;-79
2023/10/21 03:38:29;;;;;;;;;;;;;;;20.56;29.68;97481.22;4999136;28;945;-79
2023/10/21 03:41:11;;;;;;;;;;;;;;;20.77;29.57;97483.38;5016599;28;830;-79
2023/10/21 03:43:36;;;;;;;;;;;;;;;20.60;29.94;97484.72;5015683;28;1240;-78
2023/10/21 03:46:08;;;;;;;;;;;;;;;20.58;29.61;97481.56;5037165;28;1898;-79
2023/10/21 03:48:34;;;;;;;;;;;;;;;20.60;29.66;97473.44;5019067;28;1257;-79
2023/10/21 03:51:06;;;;;;;;;;;;;;;20.68;29.77;97479.66;5035346;28;807;-79
2023/10/21 03:53:32;;;;;;;;;;;;;;;20.65;29.75;97481.34;5002766;28;1312;-79
2023/10/21 03:55:58;;;;;;;;;;;;;;;20.44;29.76;97477.09;5002812;28;1366;-79
2023/10/21 03:58:24;;;;;;;;;;;;;;;20.61;29.87;97475.00;5002664;28;1206;-79
2023/10/21 04:00:50;;;;;;;;;;;;;;;20.25;30.25;97478.88;5018901;28;753;-79
2023/10/21 04:03:15;;;;;;;;;;;;;;;20.58;30.19;97466.66;5019108;28;858;-79
2023/10/21 04:05:42;;;;;;;;;;;;;;;21.33;28.82;97476.34;5018747;28;1906;-79
2023/10/21 04:08:07;;;;;;;;;;;;;;;21.23;28.86;97472.59;5018671;28;927;-79
2023/10/21 04:10:33;;;;;;;;;;;;;;;21.17;28.84;97459.50;5019039;28;1280;-79
2023/10/21 04:13:01;;;;;;;;;;;;;;;20.90;29.46;97462.81;5018943;28;889;-79
2023/10/21 04:15:27;;;;;;;;;;;;;;;20.75;29.58;97468.91;5036722;28;941;-79
2023/10/21 04:17:52;;;;;;;;;;;;;;;20.71;29.51;97467.44;5018737;28;960;-79
2023/10/21 04:20:18;;;;;;;;;;;;;;;20.79;29.29;97472.44;5022252;28;843;-79
2023/10/21 04:22:43;;;;;;;;;;;;;;;20.75;29.30;97468.91;5022431;28;1254;-80
2023/10/21 04:25:10;;;;;;;;;;;;;;;20.50;29.99;97468.91;5022222;28;798;-79
2023/10/21 04:27:35;;;;;;;;;;;;;;;20.37;30.13;97470.91;5022626;28;1902;-79
2023/10/21 04:30:01;;;;;;;;;;;;;;;20.68;29.75;97469.16;5022212;28;958;-79
2023/10/21 04:32:26;;;;;;;;;;;;;;;20.79;29.43;97468.81;5022115;28;985;-79
2023/10/21 04:34:52;;;;;;;;;;;;;;;20.62;29.77;97473.75;5022653;28;830;-79
2023/10/21 04:37:17;;;;;;;;;;;;;;;20.48;30.15;97474.22;5022387;28;852;-79
2023/10/21 04:39:43;;;;;;;;;;;;;;;20.28;30.46;97472.34;5039779;28;771;-79
2023/10/21 04:42:10;;;;;;;;;;;;;;;20.33;30.36;97487.16;5022070;28;929;-79
2023/10/21 04:44:35;;;;;;;;;;;;;;;20.53;29.84;97480.09;5022199;28;1172;-79
2023/10/21 04:47:01;;;;;;;;;;;;;;;20.26;30.28;97479.66;5005229;28;2418;-79
2023/10/21 04:49:26;;;;;;;;;;;;;;;20.42;30.23;97484.47;5039149;28;859;-78
2023/10/21 04:51:52;;;;;;;;;;;;;;;20.40;30.03;97478.47;5021389;28;802;-79
2023/10/21 04:54:17;;;;;;;;;;;;;;;20.31;30.17;97484.75;5039057;28;865;-79
2023/10/21 04:56:43;;;;;;;;;;;;;;;20.58;29.72;97492.09;5021341;28;754;-79
2023/10/21 04:59:09;;;;;;;;;;;;;;;20.48;29.88;97489.13;5038651;28;752;-79
2023/10/21 05:01:35;;;;;;;;;;;;;;;20.49;30.02;97492.75;5038776;28;757;-79
2023/10/21 05:04:00;;;;;;;;;;;;;;;21.26;29.26;97491.50;5038841;28;1097;-79
2023/10/21 05:06:26;;;;;;;;;;;;;;;21.47;29.02;97494.91;5039058;28;1902;-79
2023/10/21 05:08:51;;;;;;;;;;;;;;;21.10;29.63;97505.78;5037144;28;850;-76
2023/10/21 05:11:17;;;;;;;;;;;;;;;20.80;29.69;97505.09;5004438;28;850;-77
2023/10/21 05:13:42;;;;;;;;;;;;;;;20.69;29.92;97506.69;5020620;28;967;-77
2023/10/21 05:16:08;;;;;;;;;;;;;;;20.95;29.36;97521.63;5038730;28;1077;-77
2023/10/21 05:18:33;;;;;;;;;;;;;;;20.61;29.76;97508.13;5020425;28;841;-77
2023/10/21 05:20:59;;;;;;;;;;;;;;;20.62;29.73;97518.97;5038499;28;840;-77
2023/10/21 05:23:24;;;;;;;;;;;;;;;20.71;29.81;97524.78;5020693;28;870;-77
2023/10/21 05:25:50;;;;;;;;;;;;;;;20.65;29.81;97520.13;5020774;28;1978;-77
2023/10/21 05:28:16;;;;;;;;;;;;;;;20.47;30.31;97521.47;5019866;28;1202;-77
2023/10/21 05:30:43;;;;;;;;;;;;;;;20.55;29.87;97534.13;5037567;28;736;-78
2023/10/21 05:33:09;;;;;;;;;;;;;;;20.37;30.50;97538.72;5020633;28;858;-77
2023/10/21 05:35:34;;;;;;;;;;;;;;;20.48;30.17;97539.22;5020181;28;735;-78
2023/10/21 05:38:00;;;;;;;;;;;;;;;20.75;29.66;97539.59;5037864;28;804;-78
2023/10/21 05:40:25;;;;;;;;;;;;;;;20.48;30.31;97545.66;5004123;28;1270;-77
2023/10/21 05:42:51;;;;;;;;;;;;;;;20.26;30.46;97550.28;5020254;28;881;-77
2023/10/21 05:45:16;;;;;;;;;;;;;;;20.31;30.66;97549.75;5018895;28;1088;-77
2023/10/21 05:47:42;;;;;;;;;;;;;;;20.67;30.02;97552.34;5035300;28;1987;-77
2023/10/21 05:50:07;;;;;;;;;;;;;;;20.75;29.88;97550.13;5015326;28;1277;-77
2023/10/21 05:52:33;;;;;;;;;;;;;;;20.56;29.93;97563.19;5015812;28;822;-77
2023/10/21 05:55:01;;;;;;;;;;;;;;;20.39;30.63;97561.66;5015713;28;883;-78
2023/10/21 05:57:27;;;;;;;;;;;;;;;20.51;30.10;97561.69;5015272;28;742;-78
2023/10/21 05:59:52;;;;;;;;;;;;;;;20.55;29.97;97568.03;5015227;28;938;-78
2023/10/21 06:02:18;;;;;;;;;;;;;;;20.61;30.11;97573.16;5015485;28;782;-78
2023/10/21 06:04:43;;;;;;;;;;;;;;;20.58;30.16;97569.19;5015501;28;1092;-79
2023/10/21 06:07:09;;;;;;;;;;;;;;;20.72;29.72;97570.78;4999261;28;1979;-79
2023/10/21 06:09:34;;;;;;;;;;;;;;;20.53;30.02;97575.41;5016045;28;882;-78
2023/10/21 06:12:00;;;;;;;;;;;;;;;20.91;29.90;97566.19;5035552;28;1178;-78
2023/10/21 06:14:25;;;;;;;;;;;;;;;21.28;29.47;97579.56;5019239;28;1241;-79
2023/10/21 06:16:51;;;;;;;;;;;;;;;21.31;29.33;97573.03;5019073;28;875;-79
2023/10/21 06:19:16;;;;;;;;;;;;;;;21.13;29.64;97571.97;5035315;28;1006;-78
2023/10/21 06:21:41;;;;;;;;;;;;;;;21.02;29.75;97577.97;5004398;28;890;-79
2023/10/21 06:24:07;;;;;;;;;;;;;;;20.46;30.61;97575.56;4998812;28;978;-78
2023/10/21 06:26:33;;;;;;;;;;;;;;;20.65;30.25;97582.31;4999206;28;1910;-78
2023/10/21 06:28:58;;;;;;;;;;;;;;;20.55;30.42;97579.34;4999152;28;1253;-79
2023/10/21 06:31:24;;;;;;;;;;;;;;;20.88;29.89;97567.91;4999286;28;924;-79
2023/10/21 06:33:50;;;;;;;;;;;;;;;20.69;30.15;97583.81;4998735;28;876;-78
2023/10/21 06:36:15;;;;;;;;;;;;;;;20.65;30.19;97583.13;4998852;28;990;-78
2023/10/21 06:38:41;;;;;;;;;;;;;;;20.73;29.94;97587.31;4998716;28;1087;-78
2023/10/21 06:41:06;;;;;;;;;;;;;;;20.43;30.41;97587.78;4995416;28;1170;-79
2023/10/21 06:43:32;;;;;;;;;;;;;;;20.87;29.79;97582.47;4979380;28;1077;-78
2023/10/21 06:45:57;;;;;;;;;;;;;;;20.46;30.48;97582.03;4978843;28;1981;-78
2023/10/21 06:48:23;;;;;;;;;;;;;;;20.53;30.39;97586.72;4996588;28;893;-78
2023/10/21 06:50:48;;;;;;;;;;;;;;;20.76;30.11;97594.91;5015635;28;880;-79
2023/10/21 06:53:14;;;;;;;;;;;;;;;20.53;30.37;97587.50;5014835;28;933;-78
2023/10/21 06:55:43;;;;;;;;;;;;;;;20.52;30.63;97590.75;5015051;28;1251;-78
2023/10/21 06:58:09;;;;;;;;;;;;;;;20.70;30.24;97599.53;4998580;28;1367;-78
2023/10/21 07:00:35;;;;;;;;;;;;;;;20.89;29.59;97596.97;5014526;28;904;-79
2023/10/21 07:03:00;;;;;;;;;;;;;;;20.75;29.81;97598.97;5014888;28;842;-79
2023/10/21 07:05:26;;;;;;;;;;;;;;;20.49;30.38;97591.66;4998267;28;1127;-79
2023/10/21 07:07:51;;;;;;;;;;;;;;;20.65;30.15;97600.06;4998120;28;1914;-79
2023/10/21 07:10:17;;;;;;;;;;;;;;;20.76;30.09;97603.38;5014319;28;885;-79
2023/10/21 07:12:42;;;;;;;;;;;;;;;20.59;30.55;97601.09;5002082;28;819;-79
2023/10/21 07:15:09;;;;;;;;;;;;;;;20.41;30.64;97601.53;5018509;28;755;-78
2023/10/21 07:17:35;;;;;;;;;;;;;;;20.68;30.02;97602.00;5035056;28;897;-77
2023/10/21 07:20:01;;;;;;;;;;;;;;;20.73;30.03;97600.69;5002765;28;1234;-78
2023/10/21 07:22:26;;;;;;;;;;;;;;;20.50;30.26;97598.91;5002557;28;1152;-78
2023/10/21 07:24:55;;;;;;;;;;;;;;;20.63;30.11;97602.56;5018698;28;771;-77
2023/10/21 07:27:21;;;;;;;;;;;;;;;20.50;30.60;97601.72;5019124;28;1913;-77
2023/10/21 07:29:47;;;;;;;;;;;;;;;20.68;30.25;97604.06;5003059;28;1227;-77
2023/10/21 07:32:12;;;;;;;;;;;;;;;20.73;30.09;97609.94;5036620;28;958;-77
2023/10/21 07:34:38;;;;;;;;;;;;;;;20.64;30.18;97604.16;5019097;28;1141;-78
2023/10/21 07:37:03;;;;;;;;;;;;;;;20.66;30.42;97607.31;5019197;28;864;-77
2023/10/21 07:39:29;;;;;;;;;;;;;;;20.70;30.17;97618.53;5019324;28;728;-77
2023/10/21 07:41:54;;;;;;;;;;;;;;;20.73;30.03;97612.78;5036944;28;751;-78
2023/10/21 07:44:20;;;;;;;;;;;;;;;21.10;29.43;97607.63;5018953;28;1259;-77
2023/10/21 07:46:45;;;;;;;;;;;;;;;20.90;29.82;97615.53;5019150;28;1906;-77
2023/10/21 07:49:12;;;;;;;;;;;;;;;20.76;30.19;97609.03;5002638;28;890;-77
2023/10/21 07:51:37;;;;;;;;;;;;;;;20.60;30.38;97614.75;5036906;28;893;-78
2023/10/21 07:54:03;;;;;;;;;;;;;;;20.89;30.00;97619.59;5022190;28;1264;-77
2023/10/21 07:56:28;;;;;;;;;;;;;;;20.79;29.99;97624.31;5006458;28;1127;-77
2023/10/21 07:58:54;;;;;;;;;;;;;;;20.87;29.80;97616.41;5039151;28;860;-77
2023/10/21 08:01:19;;;;;;;;;;;;;;;21.19;29.55;97624.72;5022790;28;953;-77
2023/10/21 08:03:45;;;;;;;;;;;;;;;20.87;29.90;97622.06;5006740;28;862;-77
2023/10/21 08:06:10;;;;;;;;;;;;;;;21.10;29.53;97618.94;5022236;28;1983;-77
2023/10/21 08:08:36;;;;;;;;;;;;;;;20.92;30.06;97630.00;5039504;28;842;-78
2023/10/21 08:11:02;;;;;;;;;;;;;;;20.62;30.53;97629.22;5006245;28;843;-77
2023/10/21 08:13:28;;;;;;;;;;;;;;;20.72;30.44;97627.34;5022223;28;970;-78
2023/10/21 08:15:53;;;;;;;;;;;;;;;20.96;30.07;97630.69;5022096;28;791;-78
2023/10/21 08:18:19;;;;;;;;;;;;;;;20.89;29.96;97626.03;5039536;28;1031;-78
2023/10/21 08:20:45;;;;;;;;;;;;;;;20.92;29.84;97630.78;5005401;28;875;-77
2023/10/21 08:23:10;;;;;;;;;;;;;;;20.69;30.24;97629.03;5021762;28;785;-78
2023/10/21 08:25:36;;;;;;;;;;;;;;;20.63;30.76;97630.84;5018405;28;1297;-78
2023/10/21 08:28:03;;;;;;;;;;;;;;;20.89;29.97;97653.53;5039233;28;1910;-77
2023/10/21 08:30:28;;;;;;;;;;;;;;;20.72;30.19;97647.91;5005711;28;1016;-78
2023/10/21 08:32:54;;;;;;;;;;;;;;;20.69;30.50;97646.00;5020761;28;902;-77
2023/10/21 08:35:19;;;;;;;;;;;;;;;20.52;30.64;97647.28;5021328;28;1098;-77
2023/10/21 08:37:45;;;;;;;;;;;;;;;20.74;30.51;97648.28;4977741;28;941;-77
2023/10/21 08:40:10;;;;;;;;;;;;;;;20.63;30.47;97653.44;4962282;28;1116;-77
2023/10/21 08:42:36;;;;;;;;;;;;;;;20.70;30.43;97647.59;4962328;28;962;-78
2023/10/21 08:45:05;;;;;;;;;;;;;;;20.65;30.46;97653.78;4978071;28;1207;-77
2023/10/21 08:47:30;;;;;;;;;;;;;;;20.86;30.45;97654.41;4961856;28;1914;-77
2023/10/21 08:49:56;;;;;;;;;;;;;;;20.84;30.31;97654.09;4962221;28;1101;-77
2023/10/21 08:52:21;;;;;;;;;;;;;;;21.02;30.19;97651.50;4978176;28;1249;-77
2023/10/21 08:54:47;;;;;;;;;;;;;;;20.56;30.65;97650.81;4978324;28;1188;-78
2023/10/21 08:57:12;;;;;;;;;;;;;;;20.71;30.68;97654.81;5016853;28;1262;-77
2023/10/21 08:59:38;;;;;;;;;;;;;;;20.69;30.36;97640.34;5000828;28;1017;-77
2023/10/21 09:02:04;;;;;;;;;;;;;;;20.87;30.04;97656.78;4984609;28;903;-78
2023/10/21 09:04:29;;;;;;;;;;;;;;;21.02;30.05;97660.78;4983929;28;1049;-77
2023/10/21 09:06:59;;;;;;;;;;;;;;;20.91;30.10;97651.03;4984986;28;1914;-77
2023/10/21 09:09:28;;;;;;;;;;;;;;;20.81;30.50;97650.88;5030821;28;990;-77
2023/10/21 09:12:22;;;;;;;;;;;;;;;20.60;30.86;97643.03;5060333;28;872;-77
2023/10/21 09:14:58;;;;;;;;;;;;;;;20.91;30.10;97640.50;4977312;28;1057;-77
2023/10/21 09:17:34;;;;;;;;;;;;;;;20.80;30.38;97646.47;4961709;28;957;-77
2023/10/21 09:20:00;;;;;;;;;;;;;;;20.67;30.57;97645.63;4929779;28;1472;-78
2023/10/21 09:22:27;;;;;;;;;;;;;;;20.92;30.14;97653.41;4961296;28;910;-77
2023/10/21 09:25:14;;;;;;;;;;;;;;;20.70;30.58;97644.75;4961636;28;962;-77
2023/10/21 09:27:41;;;;;;;;;;;;;;;20.76;30.43;97640.13;4945487;28;1906;-77
2023/10/21 09:30:07;;;;;;;;;;;;;;;20.75;30.48;97644.22;4945545;28;1006;-78
2023/10/21 09:32:33;;;;;;;;;;;;;;;20.82;30.66;97646.03;4977317;28;1129;-78
2023/10/21 09:35:14;;;;;;;;;;;;;;;20.91;30.15;97634.06;4913817;29;2119;-78
2023/10/21 09:37:39;;;;;;;;;;;;;;;20.99;30.09;97643.94;4922910;29;1182;-77
2023/10/21 09:40:06;;;;;;;;;;;;;;;21.19;29.67;97638.06;4938713;29;1219;-78
2023/10/21 09:42:41;;;;;;;;;;;;;;;21.20;29.69;97629.16;4922820;29;1381;-78
2023/10/21 09:45:07;;;;;;;;;;;;;;;20.77;30.69;97627.56;4938640;29;1372;-78
2023/10/21 09:47:34;;;;;;;;;;;;;;;20.95;30.32;97640.41;4938223;29;1898;-78
2023/10/21 09:50:00;;;;;;;;;;;;;;;20.71;30.51;97626.53;4923671;28;917;-78
2023/10/21 09:52:28;;;;;;;;;;;;;;;21.01;29.95;97638.63;4983547;28;901;-77
2023/10/21 09:54:54;;;;;;;;;;;;;;;21.03;29.96;97639.75;4983691;28;1123;-78
2023/10/21 09:57:19;;;;;;;;;;;;;;;21.00;30.05;97637.81;5016092;28;943;-78
2023/10/21 09:59:46;;;;;;;;;;;;;;;20.88;30.48;97626.47;4999633;28;1133;-78
2023/10/21 10:02:11;;;;;;;;;;;;;;;21.04;30.15;97627.19;4983310;28;1148;-77
2023/10/21 10:04:37;;;;;;;;;;;;;;;21.24;29.73;97635.50;4999431;28;1179;-78
2023/10/21 10:07:09;;;;;;;;;;;;;;;21.19;29.95;97616.25;4983276;28;1906;-77
2023/10/21 10:09:36;;;;;;;;;;;;;;;20.92;30.12;97630.78;4984142;28;835;-78
2023/10/21 10:12:03;;;;;;;;;;;;;;;21.01;30.20;97627.31;4999083;28;856;-78
2023/10/21 10:14:29;;;;;;;;;;;;;;;21.10;30.06;97624.59;4983029;28;955;-77
2023/10/21 10:16:54;;;;;;;;;;;;;;;21.18;29.86;97622.34;4969145;28;996;-77
2023/10/21 10:19:35;;;;;;;;;;;;;;;21.18;29.92;97625.94;4960211;28;1048;-77
2023/10/21 10:22:15;;;;;;;;;;;;;;;20.80;30.45;97623.88;4960669;28;1253;-77
2023/10/21 10:24:45;;;;;;;;;;;;;;;21.16;30.13;97611.47;4975530;28;905;-77
2023/10/21 10:27:11;;;;;;;;;;;;;;;21.04;30.17;97620.75;5000124;28;1975;-77
2023/10/21 10:29:37;;;;;;;;;;;;;;;21.20;30.05;97623.47;5017431;28;955;-77
2023/10/21 10:32:14;;;;;;;;;;;;;;;21.29;29.75;97623.59;5018092;28;909;-78
2023/10/21 10:34:52;;;;;;;;;;;;;;;21.25;30.06;97625.75;4999708;28;873;-77
2023/10/21 10:37:26;;;;;;;;;;;;;;;21.10;30.07;97613.28;4984029;28;1002;-78
2023/10/21 10:39:54;;;;;;;;;;;;;;;21.01;30.54;97624.47;4999861;28;870;-78
2023/10/21 10:42:19;;;;;;;;;;;;;;;21.11;30.02;97612.03;4999694;28;703;-78
2023/10/21 10:44:45;;;;;;;;;;;;;;;21.05;30.52;97613.84;4983120;28;1256;-78
2023/10/21 10:47:10;;;;;;;;;;;;;;;21.11;30.13;97619.72;4999526;28;1914;-77
2023/10/21 10:49:55;;;;;;;;;;;;;;;21.28;29.87;97613.50;4999777;28;838;-77
2023/10/21 10:52:33;;;;;;;;;;;;;;;21.00;30.34;97611.56;4999625;28;926;-79
2023/10/21 10:54:59;;;;;;;;;;;;;;;20.98;30.47;97625.34;5000226;28;883;-79
2023/10/21 10:57:25;;;;;;;;;;;;;;;21.10;30.20;97612.50;4983209;28;922;-78
2023/10/21 10:59:50;;;;;;;;;;;;;;;21.08;30.27;97627.06;4999304;28;894;-78
2023/10/21 11:02:19;;;;;;;;;;;;;;;20.93;30.41;97621.06;4999235;28;1342;-79
2023/10/21 11:04:48;;;;;;;;;;;;;;;21.16;30.09;97611.47;4999653;28;1112;-78
2023/10/21 11:07:15;;;;;;;;;;;;;;;21.25;30.01;97619.31;4983082;28;1979;-78
2023/10/21 11:09:40;;;;;;;;;;;;;;;20.90;30.74;97621.19;4999580;28;1334;-78
2023/10/21 11:12:06;;;;;;;;;;;;;;;21.08;30.69;97613.72;4999424;28;922;-78
2023/10/21 11:14:31;;;;;;;;;;;;;;;21.02;30.47;97617.56;5016612;28;1052;-78
2023/10/21 11:16:57;;;;;;;;;;;;;;;21.12;30.32;97610.78;4983466;28;1808;-78
2023/10/21 11:19:22;;;;;;;;;;;;;;;21.14;30.47;97613.97;4997875;28;1044;-78
2023/10/21 11:21:48;;;;;;;;;;;;;;;21.21;30.11;97613.75;5014206;28;1009;-78
2023/10/21 11:24:14;;;;;;;;;;;;;;;20.90;30.57;97607.81;5014081;28;816;-78
2023/10/21 11:26:39;;;;;;;;;;;;;;;21.16;30.16;97600.16;4998352;28;1907;-78
2023/10/21 11:29:05;;;;;;;;;;;;;;;21.22;30.24;97606.84;5020943;28;1391;-78
2023/10/21 11:31:31;;;;;;;;;;;;;;;21.15;30.45;97603.44;5022326;28;869;-77
2023/10/21 11:34:11;;;;;;;;;;;;;;;20.87;30.92;97596.59;5005574;28;1113;-77
2023/10/21 11:36:38;;;;;;;;;;;;;;;21.16;30.24;97599.38;5021925;28;1009;-78
2023/10/21 11:39:15;;;;;;;;;;;;;;;21.09;30.36;97594.72;5022108;28;946;-78
2023/10/21 11:41:44;;;;;;;;;;;;;;;21.10;30.47;97607.63;4983742;28;1084;-78
2023/10/21 11:44:10;;;;;;;;;;;;;;;21.26;30.29;97599.03;4982485;28;1193;-78
2023/10/21 11:46:38;;;;;;;;;;;;;;;21.38;29.90;97593.84;4966584;28;1907;-78
2023/10/21 11:49:13;;;;;;;;;;;;;;;21.17;30.32;97600.94;4982234;28;1010;-78
2023/10/21 11:51:40;;;;;;;;;;;;;;;21.35;30.12;97600.41;4983295;28;1281;-78
2023/10/21 11:54:09;;;;;;;;;;;;;;;21.21;30.44;97596.78;4982118;28;981;-78
2023/10/21 12:05:34;;;;;;;;;;;;;;;21.02;30.77;97600.59;4984608;28;1204;-77
2023/10/21 12:15:48;;;;;;;;;;;;;;;21.32;30.28;97597.25;4947159;28;1226;-78
2023/10/21 12:38:41;;;;;;;;;;;;;;;20.96;30.82;97608.06;4939114;29;900;-78
2023/10/21 12:43:35;;;;;;;;;;;;;;;21.53;29.89;97603.47;4920722;29;948;-78
2023/10/21 12:46:16;;;;;;;;;;;;;;;21.44;30.13;97603.34;4920687;29;2040;-78
2023/10/21 12:48:42;;;;;;;;;;;;;;;21.33;30.40;97604.50;4957651;29;893;-79
2023/10/21 12:51:09;;;;;;;;;;;;;;;21.49;29.96;97605.63;4957750;29;835;-78
2023/10/21 12:53:35;;;;;;;;;;;;;;;21.10;30.82;97601.97;4967341;28;815;-78
2023/10/21 12:56:01;;;;;;;;;;;;;;;21.19;30.43;97599.28;4980312;28;777;-78
2023/10/21 12:58:26;;;;;;;;;;;;;;;20.99;31.07;97602.31;4980446;28;842;-78
2023/10/21 13:00:52;;;;;;;;;;;;;;;21.33;30.32;97610.16;4996476;28;765;-78
2023/10/21 13:03:17;;;;;;;;;;;;;;;21.23;30.29;97605.59;4980185;28;752;-78
2023/10/21 13:05:52;;;;;;;;;;;;;;;21.13;30.77;97600.25;4996688;28;793;-79
2023/10/21 13:08:21;;;;;;;;;;;;;;;20.89;30.96;97596.97;4996128;28;1914;-79
2023/10/21 13:10:47;;;;;;;;;;;;;;;21.10;30.71;97604.81;4996214;28;789;-79
2023/10/21 13:13:16;;;;;;;;;;;;;;;21.02;30.92;97607.03;5033843;28;1168;-79
2023/10/21 13:15:43;;;;;;;;;;;;;;;20.96;30.84;97605.22;5019822;28;882;-79
2023/10/21 13:18:09;;;;;;;;;;;;;;;21.07;30.72;97602.88;5035390;28;902;-79
2023/10/21 13:20:35;;;;;;;;;;;;;;;21.27;30.26;97599.81;5035574;28;767;-79
2023/10/21 13:23:00;;;;;;;;;;;;;;;21.19;30.39;97599.28;5018859;28;769;-79
2023/10/21 13:25:26;;;;;;;;;;;;;;;21.06;30.61;97601.28;5002505;28;1105;-78
2023/10/21 13:27:51;;;;;;;;;;;;;;;21.04;30.92;97604.56;5002076;28;1977;-78
2023/10/21 13:30:17;;;;;;;;;;;;;;;21.03;30.87;97607.84;5018527;28;836;-79
2023/10/21 13:32:42;;;;;;;;;;;;;;;20.88;31.16;97612.31;5018589;28;1036;-79
2023/10/21 13:35:11;;;;;;;;;;;;;;;21.28;30.31;97607.84;5018888;28;790;-79
2023/10/21 13:37:38;;;;;;;;;;;;;;;20.77;31.05;97610.63;4986591;28;1251;-79
2023/10/21 13:40:12;;;;;;;;;;;;;;;20.78;31.07;97609.41;5006887;28;775;-79